Fort Abbas Weather



Fort Abbas's Current Weather

Temprature 29.276o clear sky

clear sky

Rain: 0 %

Min Temprature29.276o
Max Temprature29.276o
Humidity25
Wind Speed3.89 m/h
Sun Rise05:36:45
Sun Set18:37:42
Current Time: 21-Apr-2019 06:04:16
Lat/Lon: 29.19, 72.85




Fort Abbas's Geo Location



Fort Abbas's Weather Forecast

Time Overall Temp Min Temp Max Temp Humidity Wind Speed Rain
21-Apr-2019 (Sun)
08:00:00 clear sky 32.690 32.689 32.690 19 4.93 m/h 0 %
11:00:00 clear sky 37.350 37.350 37.350 12 5.38 m/h 0 %
14:00:00 clear sky 39.550 39.550 39.550 11 5.31 m/h 0 %
17:00:00 clear sky 39.750 39.750 39.750 10 4.49 m/h 0 %
20:00:00 clear sky 36.350 36.350 36.350 13 3.96 m/h 0 %
23:00:00 clear sky 33.910 33.910 33.910 15 3.06 m/h 0 %
22-Apr-2019 (Mon)
02:00:00 clear sky 31.270 31.270 31.270 19 2.67 m/h 0 %
05:00:00 clear sky 29.864 29.864 29.864 21 2.64 m/h 0 %
08:00:00 clear sky 33.486 33.486 33.486 17 2.82 m/h 0 %
11:00:00 clear sky 39.420 39.420 39.420 13 4.13 m/h 0 %
14:00:00 clear sky 42.115 42.115 42.115 11 5.85 m/h 0 %
17:00:00 clear sky 42.131 42.131 42.131 10 5.01 m/h 0 %
20:00:00 clear sky 38.350 38.350 38.350 12 2.59 m/h 0 %
23:00:00 clear sky 34.796 34.796 34.796 15 0.71 m/h 0 %
23-Apr-2019 (Tue)
02:00:00 clear sky 32.477 32.477 32.477 18 0.91 m/h 0 %
05:00:00 clear sky 30.456 30.456 30.456 21 0.25 m/h 0 %
08:00:00 clear sky 35.777 35.777 35.777 14 3.33 m/h 0 %
11:00:00 few clouds 42.050 42.050 42.050 9 7.65 m/h 0 %
14:00:00 clear sky 43.950 43.950 43.950 8 6.87 m/h 0 %
17:00:00 clear sky 43.250 43.250 43.250 8 5.76 m/h 0 %
20:00:00 broken clouds 39.828 39.828 39.828 9 4.78 m/h 0 %
23:00:00 scattered clouds 37.250 37.250 37.250 10 4.5 m/h 0 %
24-Apr-2019 (Wed)
02:00:00 broken clouds 35.782 35.782 35.782 11 6.27 m/h 0 %
05:00:00 scattered clouds 33.494 33.494 33.494 15 6.76 m/h 0 %
08:00:00 clear sky 35.850 35.850 35.850 18 7.77 m/h 0 %
11:00:00 clear sky 40.808 40.808 40.808 10 7.29 m/h 0 %
14:00:00 clear sky 42.750 42.750 42.750 5 8.37 m/h 0 %
17:00:00 clear sky 41.650 41.650 41.650 6 6.21 m/h 0 %
20:00:00 clear sky 37.855 37.855 37.855 10 3.28 m/h 0 %
23:00:00 clear sky 34.645 34.645 34.645 17 7.1 m/h 0 %
25-Apr-2019 (Thu)
02:00:00 overcast clouds 30.950 30.950 30.950 30 6.99 m/h 0 %
05:00:00 overcast clouds 30.792 30.792 30.792 28 5.75 m/h 0 %
08:00:00 broken clouds 33.520 33.520 33.520 22 4.75 m/h 0 %
11:00:00 light rain 36.290 36.290 36.290 21 4.3 m/h 69 %
14:00:00 broken clouds 36.250 36.250 36.250 21 3.38 m/h 0 %
17:00:00 scattered clouds 37.611 37.611 37.611 17 1.25 m/h 0 %
20:00:00 clear sky 35.325 35.325 35.325 20 1.62 m/h 0 %
23:00:00 clear sky 34.143 34.143 34.143 22 2.32 m/h 0 %
26-Apr-2019 (Fri)
02:00:00 clear sky 32.832 32.832 32.832 24 3.08 m/h 0 %
05:00:00 clear sky 30.436 30.436 30.436 26 4.24 m/h 0 %

Famous Cities (60)